sensor_id;sensor_type;location;lat;lon;timestamp;P1;durP1;ratioP1;P2;durP2;ratioP2
70420;SDS011;57848;51.938;15.520;2023-05-07T00:01:41;17.17;;;8.50;;
70420;SDS011;57848;51.938;15.520;2023-05-07T00:04:06;13.97;;;8.27;;
70420;SDS011;57848;51.938;15.520;2023-05-07T00:06:32;18.30;;;9.67;;
70420;SDS011;57848;51.938;15.520;2023-05-07T00:08:58;14.52;;;8.45;;
70420;SDS011;57848;51.938;15.520;2023-05-07T00:11:24;17.15;;;8.88;;
70420;SDS011;57848;51.938;15.520;2023-05-07T00:13:50;15.30;;;9.10;;
70420;SDS011;57848;51.938;15.520;2023-05-07T00:16:16;16.67;;;9.50;;
70420;SDS011;57848;51.938;15.520;2023-05-07T00:18:41;17.70;;;9.30;;
70420;SDS011;57848;51.938;15.520;2023-05-07T00:21:07;19.43;;;9.10;;
70420;SDS011;57848;51.938;15.520;2023-05-07T00:23:32;15.40;;;9.33;;
70420;SDS011;57848;51.938;15.520;2023-05-07T00:25:57;15.55;;;8.43;;
70420;SDS011;57848;51.938;15.520;2023-05-07T00:28:23;14.33;;;8.50;;
70420;SDS011;57848;51.938;15.520;2023-05-07T00:30:48;16.07;;;9.03;;
70420;SDS011;57848;51.938;15.520;2023-05-07T00:33:14;20.13;;;9.70;;
70420;SDS011;57848;51.938;15.520;2023-05-07T00:35:39;16.58;;;9.25;;
70420;SDS011;57848;51.938;15.520;2023-05-07T00:38:05;16.17;;;9.03;;
70420;SDS011;57848;51.938;15.520;2023-05-07T00:40:30;16.93;;;8.77;;
70420;SDS011;57848;51.938;15.520;2023-05-07T00:42:56;16.73;;;8.80;;
70420;SDS011;57848;51.938;15.520;2023-05-07T00:45:24;15.87;;;8.43;;
70420;SDS011;57848;51.938;15.520;2023-05-07T00:47:51;16.27;;;9.75;;
70420;SDS011;57848;51.938;15.520;2023-05-07T00:50:19;15.30;;;9.63;;
70420;SDS011;57848;51.938;15.520;2023-05-07T00:52:45;18.42;;;10.10;;
70420;SDS011;57848;51.938;15.520;2023-05-07T00:55:10;21.57;;;10.53;;
70420;SDS011;57848;51.938;15.520;2023-05-07T00:57:37;16.42;;;9.60;;
70420;SDS011;57848;51.938;15.520;2023-05-07T01:00:04;18.52;;;10.05;;
70420;SDS011;57848;51.938;15.520;2023-05-07T01:02:30;15.27;;;9.10;;
70420;SDS011;57848;51.938;15.520;2023-05-07T01:04:56;18.10;;;9.73;;
70420;SDS011;57848;51.938;15.520;2023-05-07T01:07:21;18.63;;;9.67;;
70420;SDS011;57848;51.938;15.520;2023-05-07T01:09:48;17.45;;;10.18;;
70420;SDS011;57848;51.938;15.520;2023-05-07T01:12:14;16.55;;;9.05;;
70420;SDS011;57848;51.938;15.520;2023-05-07T01:14:40;16.30;;;9.17;;
70420;SDS011;57848;51.938;15.520;2023-05-07T01:17:06;17.50;;;10.32;;
70420;SDS011;57848;51.938;15.520;2023-05-07T01:19:31;15.80;;;9.30;;
70420;SDS011;57848;51.938;15.520;2023-05-07T01:22:01;17.48;;;9.25;;
70420;SDS011;57848;51.938;15.520;2023-05-07T01:24:40;15.50;;;8.40;;
70420;SDS011;57848;51.938;15.520;2023-05-07T01:27:07;17.45;;;8.77;;
70420;SDS011;57848;51.938;15.520;2023-05-07T01:29:33;18.67;;;9.17;;
70420;SDS011;57848;51.938;15.520;2023-05-07T01:32:00;14.82;;;9.05;;
70420;SDS011;57848;51.938;15.520;2023-05-07T01:34:30;15.85;;;8.77;;
70420;SDS011;57848;51.938;15.520;2023-05-07T01:36:57;15.70;;;8.67;;
70420;SDS011;57848;51.938;15.520;2023-05-07T01:39:24;15.80;;;8.60;;
70420;SDS011;57848;51.938;15.520;2023-05-07T01:41:51;15.73;;;9.13;;
70420;SDS011;57848;51.938;15.520;2023-05-07T01:44:20;15.30;;;8.38;;
70420;SDS011;57848;51.938;15.520;2023-05-07T01:46:46;15.90;;;8.95;;
70420;SDS011;57848;51.938;15.520;2023-05-07T01:49:13;14.83;;;8.13;;
70420;SDS011;57848;51.938;15.520;2023-05-07T01:51:38;16.40;;;8.60;;
70420;SDS011;57848;51.938;15.520;2023-05-07T01:54:04;19.08;;;9.82;;
70420;SDS011;57848;51.938;15.520;2023-05-07T01:56:30;18.57;;;9.13;;
70420;SDS011;57848;51.938;15.520;2023-05-07T01:58:56;19.08;;;9.25;;
70420;SDS011;57848;51.938;15.520;2023-05-07T02:01:22;17.20;;;8.57;;
70420;SDS011;57848;51.938;15.520;2023-05-07T02:03:48;13.93;;;8.55;;
70420;SDS011;57848;51.938;15.520;2023-05-07T02:06:20;16.83;;;8.27;;
70420;SDS011;57848;51.938;15.520;2023-05-07T02:08:46;19.02;;;9.25;;
70420;SDS011;57848;51.938;15.520;2023-05-07T02:11:13;15.10;;;8.57;;
70420;SDS011;57848;51.938;15.520;2023-05-07T02:13:38;18.43;;;9.43;;
70420;SDS011;57848;51.938;15.520;2023-05-07T02:16:03;16.92;;;8.52;;
70420;SDS011;57848;51.938;15.520;2023-05-07T02:18:29;15.57;;;8.13;;
70420;SDS011;57848;51.938;15.520;2023-05-07T02:20:55;14.73;;;8.63;;
70420;SDS011;57848;51.938;15.520;2023-05-07T02:23:20;15.77;;;8.63;;
70420;SDS011;57848;51.938;15.520;2023-05-07T02:25:46;16.93;;;9.00;;
70420;SDS011;57848;51.938;15.520;2023-05-07T02:28:11;14.17;;;8.43;;
70420;SDS011;57848;51.938;15.520;2023-05-07T02:30:47;14.00;;;7.95;;
70420;SDS011;57848;51.938;15.520;2023-05-07T02:33:13;15.15;;;8.63;;
70420;SDS011;57848;51.938;15.520;2023-05-07T02:35:39;15.98;;;8.55;;
70420;SDS011;57848;51.938;15.520;2023-05-07T02:38:05;15.03;;;8.27;;
70420;SDS011;57848;51.938;15.520;2023-05-07T02:40:31;14.38;;;7.70;;
70420;SDS011;57848;51.938;15.520;2023-05-07T02:42:58;16.88;;;8.60;;
70420;SDS011;57848;51.938;15.520;2023-05-07T02:45:24;15.00;;;8.87;;
70420;SDS011;57848;51.938;15.520;2023-05-07T02:47:52;17.00;;;9.00;;
70420;SDS011;57848;51.938;15.520;2023-05-07T02:50:17;16.23;;;8.33;;
70420;SDS011;57848;51.938;15.520;2023-05-07T02:52:43;13.73;;;7.43;;
70420;SDS011;57848;51.938;15.520;2023-05-07T02:55:08;14.40;;;8.23;;
70420;SDS011;57848;51.938;15.520;2023-05-07T02:57:34;15.10;;;7.60;;
70420;SDS011;57848;51.938;15.520;2023-05-07T02:59:59;14.05;;;7.68;;
70420;SDS011;57848;51.938;15.520;2023-05-07T03:02:34;14.85;;;7.68;;
70420;SDS011;57848;51.938;15.520;2023-05-07T03:05:00;14.37;;;8.50;;
70420;SDS011;57848;51.938;15.520;2023-05-07T03:07:25;15.30;;;7.63;;
70420;SDS011;57848;51.938;15.520;2023-05-07T03:09:50;15.10;;;7.87;;
70420;SDS011;57848;51.938;15.520;2023-05-07T03:12:16;14.60;;;7.70;;
70420;SDS011;57848;51.938;15.520;2023-05-07T03:14:41;15.13;;;7.80;;
70420;SDS011;57848;51.938;15.520;2023-05-07T03:17:06;14.82;;;7.55;;
70420;SDS011;57848;51.938;15.520;2023-05-07T03:19:32;17.23;;;8.00;;
70420;SDS011;57848;51.938;15.520;2023-05-07T03:21:57;17.73;;;8.47;;
70420;SDS011;57848;51.938;15.520;2023-05-07T03:24:23;15.97;;;8.23;;
70420;SDS011;57848;51.938;15.520;2023-05-07T03:26:48;14.50;;;7.70;;
70420;SDS011;57848;51.938;15.520;2023-05-07T03:29:13;15.90;;;8.37;;
70420;SDS011;57848;51.938;15.520;2023-05-07T03:31:38;15.47;;;7.80;;
70420;SDS011;57848;51.938;15.520;2023-05-07T03:34:04;15.88;;;8.05;;
70420;SDS011;57848;51.938;15.520;2023-05-07T03:36:29;18.60;;;7.97;;
70420;SDS011;57848;51.938;15.520;2023-05-07T03:38:56;14.30;;;8.13;;
70420;SDS011;57848;51.938;15.520;2023-05-07T03:41:24;17.80;;;8.35;;
70420;SDS011;57848;51.938;15.520;2023-05-07T03:43:50;15.38;;;7.75;;
70420;SDS011;57848;51.938;15.520;2023-05-07T03:46:16;17.23;;;8.03;;
70420;SDS011;57848;51.938;15.520;2023-05-07T03:48:41;14.73;;;7.28;;
70420;SDS011;57848;51.938;15.520;2023-05-07T03:51:07;15.80;;;7.40;;
70420;SDS011;57848;51.938;15.520;2023-05-07T03:53:33;13.85;;;7.45;;
70420;SDS011;57848;51.938;15.520;2023-05-07T03:55:59;18.10;;;8.03;;
70420;SDS011;57848;51.938;15.520;2023-05-07T03:58:24;14.43;;;7.73;;
70420;SDS011;57848;51.938;15.520;2023-05-07T04:00:51;16.20;;;8.20;;
70420;SDS011;57848;51.938;15.520;2023-05-07T04:03:24;16.90;;;8.35;;
70420;SDS011;57848;51.938;15.520;2023-05-07T04:05:49;14.17;;;8.17;;
70420;SDS011;57848;51.938;15.520;2023-05-07T04:08:15;16.30;;;7.47;;
70420;SDS011;57848;51.938;15.520;2023-05-07T04:10:45;18.83;;;8.40;;
70420;SDS011;57848;51.938;15.520;2023-05-07T04:13:10;16.53;;;7.80;;
70420;SDS011;57848;51.938;15.520;2023-05-07T04:15:36;13.95;;;7.32;;
70420;SDS011;57848;51.938;15.520;2023-05-07T04:18:04;13.00;;;7.20;;
70420;SDS011;57848;51.938;15.520;2023-05-07T04:20:30;15.73;;;7.97;;
70420;SDS011;57848;51.938;15.520;2023-05-07T04:23:01;14.65;;;7.03;;
70420;SDS011;57848;51.938;15.520;2023-05-07T04:25:27;16.27;;;7.35;;
70420;SDS011;57848;51.938;15.520;2023-05-07T04:27:57;13.13;;;6.57;;
70420;SDS011;57848;51.938;15.520;2023-05-07T04:30:25;12.93;;;6.93;;
70420;SDS011;57848;51.938;15.520;2023-05-07T04:32:51;13.60;;;6.70;;
70420;SDS011;57848;51.938;15.520;2023-05-07T04:35:17;15.57;;;7.18;;
70420;SDS011;57848;51.938;15.520;2023-05-07T04:37:42;13.40;;;6.75;;
70420;SDS011;57848;51.938;15.520;2023-05-07T04:40:08;18.63;;;7.37;;
70420;SDS011;57848;51.938;15.520;2023-05-07T04:42:34;14.80;;;7.18;;
70420;SDS011;57848;51.938;15.520;2023-05-07T04:45:01;15.38;;;6.88;;
70420;SDS011;57848;51.938;15.520;2023-05-07T04:47:29;13.67;;;6.10;;
70420;SDS011;57848;51.938;15.520;2023-05-07T04:49:55;14.40;;;6.40;;
70420;SDS011;57848;51.938;15.520;2023-05-07T04:52:20;12.57;;;5.53;;
70420;SDS011;57848;51.938;15.520;2023-05-07T04:54:45;13.30;;;5.93;;
70420;SDS011;57848;51.938;15.520;2023-05-07T04:57:11;13.37;;;6.70;;
70420;SDS011;57848;51.938;15.520;2023-05-07T04:59:36;14.25;;;6.72;;
70420;SDS011;57848;51.938;15.520;2023-05-07T05:02:02;11.87;;;6.40;;
70420;SDS011;57848;51.938;15.520;2023-05-07T05:04:29;11.35;;;5.60;;
70420;SDS011;57848;51.938;15.520;2023-05-07T05:06:55;13.93;;;6.40;;
70420;SDS011;57848;51.938;15.520;2023-05-07T05:09:21;14.15;;;5.88;;
70420;SDS011;57848;51.938;15.520;2023-05-07T05:11:46;16.53;;;6.70;;
70420;SDS011;57848;51.938;15.520;2023-05-07T05:14:12;12.27;;;6.40;;
70420;SDS011;57848;51.938;15.520;2023-05-07T05:16:37;14.25;;;6.55;;
70420;SDS011;57848;51.938;15.520;2023-05-07T05:19:03;14.17;;;6.20;;
70420;SDS011;57848;51.938;15.520;2023-05-07T05:21:31;13.27;;;6.07;;
70420;SDS011;57848;51.938;15.520;2023-05-07T05:24:02;14.10;;;7.53;;
70420;SDS011;57848;51.938;15.520;2023-05-07T05:26:28;13.63;;;6.37;;
70420;SDS011;57848;51.938;15.520;2023-05-07T05:28:53;12.48;;;6.65;;
70420;SDS011;57848;51.938;15.520;2023-05-07T05:31:21;13.38;;;6.60;;
70420;SDS011;57848;51.938;15.520;2023-05-07T05:33:48;14.07;;;6.60;;
70420;SDS011;57848;51.938;15.520;2023-05-07T05:36:14;14.50;;;6.47;;
70420;SDS011;57848;51.938;15.520;2023-05-07T05:38:41;13.55;;;6.07;;
70420;SDS011;57848;51.938;15.520;2023-05-07T05:41:07;12.98;;;6.13;;
70420;SDS011;57848;51.938;15.520;2023-05-07T05:43:34;14.32;;;6.25;;
70420;SDS011;57848;51.938;15.520;2023-05-07T05:45:59;12.23;;;6.03;;
70420;SDS011;57848;51.938;15.520;2023-05-07T05:48:26;14.02;;;6.07;;
70420;SDS011;57848;51.938;15.520;2023-05-07T05:50:51;12.83;;;6.53;;
70420;SDS011;57848;51.938;15.520;2023-05-07T05:53:17;14.75;;;6.00;;
70420;SDS011;57848;51.938;15.520;2023-05-07T05:55:43;10.90;;;5.40;;
70420;SDS011;57848;51.938;15.520;2023-05-07T05:58:09;13.32;;;6.15;;
70420;SDS011;57848;51.938;15.520;2023-05-07T06:00:38;12.65;;;5.75;;
70420;SDS011;57848;51.938;15.520;2023-05-07T06:03:05;12.15;;;6.25;;
70420;SDS011;57848;51.938;15.520;2023-05-07T06:05:30;13.03;;;6.50;;
70420;SDS011;57848;51.938;15.520;2023-05-07T06:07:56;13.50;;;5.67;;
70420;SDS011;57848;51.938;15.520;2023-05-07T06:10:21;13.67;;;6.00;;
70420;SDS011;57848;51.938;15.520;2023-05-07T06:12:47;13.00;;;5.72;;
70420;SDS011;57848;51.938;15.520;2023-05-07T06:15:15;11.55;;;6.10;;
70420;SDS011;57848;51.938;15.520;2023-05-07T06:17:41;10.87;;;5.70;;
70420;SDS011;57848;51.938;15.520;2023-05-07T06:20:09;10.73;;;5.93;;
70420;SDS011;57848;51.938;15.520;2023-05-07T06:22:34;11.05;;;5.10;;
70420;SDS011;57848;51.938;15.520;2023-05-07T06:25:00;11.60;;;5.57;;
70420;SDS011;57848;51.938;15.520;2023-05-07T06:27:25;11.23;;;5.50;;
70420;SDS011;57848;51.938;15.520;2023-05-07T06:29:53;10.80;;;5.20;;
70420;SDS011;57848;51.938;15.520;2023-05-07T06:32:18;10.93;;;5.47;;
70420;SDS011;57848;51.938;15.520;2023-05-07T06:34:45;10.63;;;5.67;;
70420;SDS011;57848;51.938;15.520;2023-05-07T06:37:11;11.98;;;5.80;;
70420;SDS011;57848;51.938;15.520;2023-05-07T06:40:06;10.70;;;5.03;;
70420;SDS011;57848;51.938;15.520;2023-05-07T06:42:35;10.07;;;5.03;;
70420;SDS011;57848;51.938;15.520;2023-05-07T06:45:17;10.68;;;5.20;;
70420;SDS011;57848;51.938;15.520;2023-05-07T06:47:43;12.67;;;5.80;;
70420;SDS011;57848;51.938;15.520;2023-05-07T06:50:08;10.47;;;5.57;;
70420;SDS011;57848;51.938;15.520;2023-05-07T06:52:35;10.85;;;4.95;;
70420;SDS011;57848;51.938;15.520;2023-05-07T06:55:00;11.03;;;5.43;;
70420;SDS011;57848;51.938;15.520;2023-05-07T06:57:26;10.82;;;5.30;;
70420;SDS011;57848;51.938;15.520;2023-05-07T06:59:51;9.60;;;4.53;;
70420;SDS011;57848;51.938;15.520;2023-05-07T07:02:17;9.83;;;5.07;;
70420;SDS011;57848;51.938;15.520;2023-05-07T07:04:42;10.65;;;5.20;;
70420;SDS011;57848;51.938;15.520;2023-05-07T07:07:09;11.23;;;5.20;;
70420;SDS011;57848;51.938;15.520;2023-05-07T07:09:35;12.15;;;5.35;;
70420;SDS011;57848;51.938;15.520;2023-05-07T07:12:02;11.40;;;5.97;;
70420;SDS011;57848;51.938;15.520;2023-05-07T07:14:29;15.20;;;5.80;;
70420;SDS011;57848;51.938;15.520;2023-05-07T07:16:55;10.18;;;4.82;;
70420;SDS011;57848;51.938;15.520;2023-05-07T07:19:21;9.10;;;4.77;;
70420;SDS011;57848;51.938;15.520;2023-05-07T07:21:50;10.63;;;4.78;;
70420;SDS011;57848;51.938;15.520;2023-05-07T07:24:16;13.00;;;4.75;;
70420;SDS011;57848;51.938;15.520;2023-05-07T07:26:45;9.77;;;4.60;;
70420;SDS011;57848;51.938;15.520;2023-05-07T07:29:11;10.52;;;4.57;;
70420;SDS011;57848;51.938;15.520;2023-05-07T07:31:37;9.18;;;4.72;;
70420;SDS011;57848;51.938;15.520;2023-05-07T07:34:03;9.03;;;4.30;;
70420;SDS011;57848;51.938;15.520;2023-05-07T07:36:28;10.43;;;4.40;;
70420;SDS011;57848;51.938;15.520;2023-05-07T07:38:54;9.45;;;4.47;;
70420;SDS011;57848;51.938;15.520;2023-05-07T07:41:19;8.50;;;4.07;;
70420;SDS011;57848;51.938;15.520;2023-05-07T07:43:46;8.30;;;4.45;;
70420;SDS011;57848;51.938;15.520;2023-05-07T07:46:15;8.57;;;4.13;;
70420;SDS011;57848;51.938;15.520;2023-05-07T07:48:41;8.27;;;4.13;;
70420;SDS011;57848;51.938;15.520;2023-05-07T07:51:07;9.65;;;4.55;;
70420;SDS011;57848;51.938;15.520;2023-05-07T07:53:33;11.27;;;4.50;;
70420;SDS011;57848;51.938;15.520;2023-05-07T07:55:58;8.93;;;4.10;;
70420;SDS011;57848;51.938;15.520;2023-05-07T07:58:26;10.43;;;5.25;;
70420;SDS011;57848;51.938;15.520;2023-05-07T08:00:52;8.87;;;4.57;;
70420;SDS011;57848;51.938;15.520;2023-05-07T08:03:19;16.45;;;7.20;;
70420;SDS011;57848;51.938;15.520;2023-05-07T08:05:49;11.23;;;5.47;;
70420;SDS011;57848;51.938;15.520;2023-05-07T08:08:16;11.18;;;6.03;;
70420;SDS011;57848;51.938;15.520;2023-05-07T08:10:42;8.88;;;4.60;;
70420;SDS011;57848;51.938;15.520;2023-05-07T08:13:17;8.17;;;4.20;;
70420;SDS011;57848;51.938;15.520;2023-05-07T08:15:43;9.20;;;4.65;;
70420;SDS011;57848;51.938;15.520;2023-05-07T08:18:09;8.77;;;4.35;;
70420;SDS011;57848;51.938;15.520;2023-05-07T08:20:35;9.10;;;4.00;;
70420;SDS011;57848;51.938;15.520;2023-05-07T08:23:05;8.90;;;4.10;;
70420;SDS011;57848;51.938;15.520;2023-05-07T08:25:33;8.43;;;4.15;;
70420;SDS011;57848;51.938;15.520;2023-05-07T08:27:59;8.35;;;3.92;;
70420;SDS011;57848;51.938;15.520;2023-05-07T08:30:24;9.20;;;4.37;;
70420;SDS011;57848;51.938;15.520;2023-05-07T08:32:50;11.18;;;5.40;;
70420;SDS011;57848;51.938;15.520;2023-05-07T08:35:16;7.97;;;4.03;;
70420;SDS011;57848;51.938;15.520;2023-05-07T08:37:41;8.07;;;3.80;;
70420;SDS011;57848;51.938;15.520;2023-05-07T08:40:07;9.35;;;4.03;;
70420;SDS011;57848;51.938;15.520;2023-05-07T08:42:36;8.32;;;3.97;;
70420;SDS011;57848;51.938;15.520;2023-05-07T08:45:03;8.27;;;3.83;;
70420;SDS011;57848;51.938;15.520;2023-05-07T08:47:34;8.30;;;3.97;;
70420;SDS011;57848;51.938;15.520;2023-05-07T08:50:10;8.30;;;3.40;;
70420;SDS011;57848;51.938;15.520;2023-05-07T08:52:37;8.23;;;3.58;;
70420;SDS011;57848;51.938;15.520;2023-05-07T08:55:02;8.87;;;3.87;;
70420;SDS011;57848;51.938;15.520;2023-05-07T08:57:29;10.75;;;3.60;;
70420;SDS011;57848;51.938;15.520;2023-05-07T08:59:55;7.55;;;3.10;;
70420;SDS011;57848;51.938;15.520;2023-05-07T09:02:20;7.30;;;3.53;;
70420;SDS011;57848;51.938;15.520;2023-05-07T09:04:46;7.97;;;3.47;;
70420;SDS011;57848;51.938;15.520;2023-05-07T09:07:12;8.70;;;3.10;;
70420;SDS011;57848;51.938;15.520;2023-05-07T09:09:41;7.45;;;3.50;;
70420;SDS011;57848;51.938;15.520;2023-05-07T09:12:09;8.45;;;3.45;;
70420;SDS011;57848;51.938;15.520;2023-05-07T09:14:35;7.10;;;3.03;;
70420;SDS011;57848;51.938;15.520;2023-05-07T09:17:02;6.47;;;2.70;;
70420;SDS011;57848;51.938;15.520;2023-05-07T09:19:28;8.13;;;3.00;;
70420;SDS011;57848;51.938;15.520;2023-05-07T09:22:01;8.48;;;2.58;;
70420;SDS011;57848;51.938;15.520;2023-05-07T09:24:31;7.90;;;2.80;;
70420;SDS011;57848;51.938;15.520;2023-05-07T09:27:01;6.85;;;2.72;;
70420;SDS011;57848;51.938;15.520;2023-05-07T09:29:28;7.50;;;2.50;;
70420;SDS011;57848;51.938;15.520;2023-05-07T09:32:01;6.28;;;2.45;;
70420;SDS011;57848;51.938;15.520;2023-05-07T09:34:29;8.38;;;2.75;;
70420;SDS011;57848;51.938;15.520;2023-05-07T09:36:55;6.18;;;2.30;;
70420;SDS011;57848;51.938;15.520;2023-05-07T09:39:21;6.38;;;2.45;;
70420;SDS011;57848;51.938;15.520;2023-05-07T09:41:48;5.77;;;2.10;;
70420;SDS011;57848;51.938;15.520;2023-05-07T09:44:21;6.05;;;2.25;;
70420;SDS011;57848;51.938;15.520;2023-05-07T09:46:53;7.00;;;2.50;;
70420;SDS011;57848;51.938;15.520;2023-05-07T09:49:24;5.57;;;2.10;;
70420;SDS011;57848;51.938;15.520;2023-05-07T09:52:00;6.13;;;2.58;;
70420;SDS011;57848;51.938;15.520;2023-05-07T09:54:30;7.27;;;2.43;;
70420;SDS011;57848;51.938;15.520;2023-05-07T09:56:58;6.85;;;2.35;;
70420;SDS011;57848;51.938;15.520;2023-05-07T09:59:26;6.80;;;2.40;;
70420;SDS011;57848;51.938;15.520;2023-05-07T10:01:52;6.38;;;2.40;;
70420;SDS011;57848;51.938;15.520;2023-05-07T10:04:22;6.45;;;2.60;;
70420;SDS011;57848;51.938;15.520;2023-05-07T10:06:50;6.43;;;2.37;;
70420;SDS011;57848;51.938;15.520;2023-05-07T10:09:16;6.93;;;2.30;;
70420;SDS011;57848;51.938;15.520;2023-05-07T10:11:42;7.45;;;2.78;;
70420;SDS011;57848;51.938;15.520;2023-05-07T10:14:08;6.37;;;2.30;;
70420;SDS011;57848;51.938;15.520;2023-05-07T10:16:35;7.55;;;1.98;;
70420;SDS011;57848;51.938;15.520;2023-05-07T10:19:04;6.15;;;2.00;;
70420;SDS011;57848;51.938;15.520;2023-05-07T10:21:36;6.03;;;1.80;;
70420;SDS011;57848;51.938;15.520;2023-05-07T10:24:08;6.43;;;2.00;;
70420;SDS011;57848;51.938;15.520;2023-05-07T10:26:42;5.67;;;1.50;;
70420;SDS011;57848;51.938;15.520;2023-05-07T10:32:22;5.82;;;1.60;;
70420;SDS011;57848;51.938;15.520;2023-05-07T10:34:50;6.63;;;1.88;;
70420;SDS011;57848;51.938;15.520;2023-05-07T10:37:20;4.95;;;1.60;;
70420;SDS011;57848;51.938;15.520;2023-05-07T10:39:46;6.00;;;1.73;;
70420;SDS011;57848;51.938;15.520;2023-05-07T10:42:13;6.07;;;1.95;;
70420;SDS011;57848;51.938;15.520;2023-05-07T10:44:44;6.25;;;2.00;;
70420;SDS011;57848;51.938;15.520;2023-05-07T10:47:16;6.93;;;1.77;;
70420;SDS011;57848;51.938;15.520;2023-05-07T10:52:19;5.67;;;1.80;;
70420;SDS011;57848;51.938;15.520;2023-05-07T10:57:42;7.25;;;1.98;;
70420;SDS011;57848;51.938;15.520;2023-05-07T11:05:30;6.27;;;1.80;;
70420;SDS011;57848;51.938;15.520;2023-05-07T11:08:10;6.65;;;1.95;;
70420;SDS011;57848;51.938;15.520;2023-05-07T11:10:52;5.65;;;2.10;;
70420;SDS011;57848;51.938;15.520;2023-05-07T11:13:41;6.20;;;2.40;;
70420;SDS011;57848;51.938;15.520;2023-05-07T11:16:23;6.40;;;2.17;;
70420;SDS011;57848;51.938;15.520;2023-05-07T11:19:06;5.27;;;1.87;;
70420;SDS011;57848;51.938;15.520;2023-05-07T11:21:41;8.65;;;2.35;;
70420;SDS011;57848;51.938;15.520;2023-05-07T11:24:39;5.65;;;2.03;;
70420;SDS011;57848;51.938;15.520;2023-05-07T11:27:07;6.15;;;2.00;;
70420;SDS011;57848;51.938;15.520;2023-05-07T11:29:33;6.37;;;2.10;;
70420;SDS011;57848;51.938;15.520;2023-05-07T11:32:04;7.30;;;2.40;;
70420;SDS011;57848;51.938;15.520;2023-05-07T11:34:37;8.75;;;2.30;;
70420;SDS011;57848;51.938;15.520;2023-05-07T11:37:04;6.40;;;2.30;;
70420;SDS011;57848;51.938;15.520;2023-05-07T11:40:02;5.60;;;1.90;;
70420;SDS011;57848;51.938;15.520;2023-05-07T11:42:32;5.70;;;1.90;;
70420;SDS011;57848;51.938;15.520;2023-05-07T11:44:59;6.20;;;2.15;;
70420;SDS011;57848;51.938;15.520;2023-05-07T11:47:24;5.10;;;1.60;;
70420;SDS011;57848;51.938;15.520;2023-05-07T11:49:53;5.20;;;1.80;;
70420;SDS011;57848;51.938;15.520;2023-05-07T11:52:20;7.50;;;1.88;;
70420;SDS011;57848;51.938;15.520;2023-05-07T11:54:50;6.85;;;1.92;;
70420;SDS011;57848;51.938;15.520;2023-05-07T11:57:16;7.63;;;2.22;;
70420;SDS011;57848;51.938;15.520;2023-05-07T11:59:42;6.03;;;1.60;;
70420;SDS011;57848;51.938;15.520;2023-05-07T12:02:09;10.95;;;2.60;;
70420;SDS011;57848;51.938;15.520;2023-05-07T12:04:35;7.03;;;2.05;;
70420;SDS011;57848;51.938;15.520;2023-05-07T12:07:00;5.87;;;1.97;;
70420;SDS011;57848;51.938;15.520;2023-05-07T12:09:26;5.47;;;1.90;;
70420;SDS011;57848;51.938;15.520;2023-05-07T12:11:51;6.15;;;1.77;;
70420;SDS011;57848;51.938;15.520;2023-05-07T12:14:17;5.53;;;1.70;;
70420;SDS011;57848;51.938;15.520;2023-05-07T12:16:43;6.50;;;1.83;;
70420;SDS011;57848;51.938;15.520;2023-05-07T12:19:09;6.05;;;2.00;;
70420;SDS011;57848;51.938;15.520;2023-05-07T12:21:37;6.77;;;2.43;;
70420;SDS011;57848;51.938;15.520;2023-05-07T12:24:04;6.25;;;2.15;;
70420;SDS011;57848;51.938;15.520;2023-05-07T12:26:30;6.68;;;1.83;;
70420;SDS011;57848;51.938;15.520;2023-05-07T12:28:56;6.63;;;2.50;;
70420;SDS011;57848;51.938;15.520;2023-05-07T12:31:22;6.18;;;2.10;;
70420;SDS011;57848;51.938;15.520;2023-05-07T12:33:48;5.30;;;1.93;;
70420;SDS011;57848;51.938;15.520;2023-05-07T12:36:13;9.27;;;2.10;;
70420;SDS011;57848;51.938;15.520;2023-05-07T12:38:38;5.65;;;2.00;;
70420;SDS011;57848;51.938;15.520;2023-05-07T12:41:06;7.47;;;2.28;;
70420;SDS011;57848;51.938;15.520;2023-05-07T12:43:32;5.00;;;1.40;;
70420;SDS011;57848;51.938;15.520;2023-05-07T12:46:02;5.70;;;1.70;;
70420;SDS011;57848;51.938;15.520;2023-05-07T12:48:30;5.55;;;1.80;;
70420;SDS011;57848;51.938;15.520;2023-05-07T12:50:56;5.83;;;2.00;;
70420;SDS011;57848;51.938;15.520;2023-05-07T12:53:23;4.80;;;1.40;;
70420;SDS011;57848;51.938;15.520;2023-05-07T12:55:52;6.60;;;2.22;;
70420;SDS011;57848;51.938;15.520;2023-05-07T12:58:19;5.23;;;1.60;;
70420;SDS011;57848;51.938;15.520;2023-05-07T13:00:49;4.70;;;1.42;;
70420;SDS011;57848;51.938;15.520;2023-05-07T13:03:22;4.78;;;1.67;;
70420;SDS011;57848;51.938;15.520;2023-05-07T13:05:50;5.00;;;1.70;;
70420;SDS011;57848;51.938;15.520;2023-05-07T13:08:25;5.90;;;2.10;;
70420;SDS011;57848;51.938;15.520;2023-05-07T13:10:53;5.67;;;1.83;;
70420;SDS011;57848;51.938;15.520;2023-05-07T13:13:18;5.10;;;1.60;;
70420;SDS011;57848;51.938;15.520;2023-05-07T13:15:45;4.70;;;1.60;;
70420;SDS011;57848;51.938;15.520;2023-05-07T13:18:11;5.10;;;1.50;;
70420;SDS011;57848;51.938;15.520;2023-05-07T13:20:36;5.20;;;1.80;;
70420;SDS011;57848;51.938;15.520;2023-05-07T13:23:02;4.97;;;1.53;;
70420;SDS011;57848;51.938;15.520;2023-05-07T13:25:29;4.87;;;1.40;;
70420;SDS011;57848;51.938;15.520;2023-05-07T13:27:56;5.43;;;1.50;;
70420;SDS011;57848;51.938;15.520;2023-05-07T13:30:21;4.25;;;1.20;;
70420;SDS011;57848;51.938;15.520;2023-05-07T13:32:47;5.50;;;1.30;;
70420;SDS011;57848;51.938;15.520;2023-05-07T13:35:12;4.90;;;1.50;;
70420;SDS011;57848;51.938;15.520;2023-05-07T13:37:38;4.97;;;1.50;;
70420;SDS011;57848;51.938;15.520;2023-05-07T13:40:03;6.27;;;1.80;;
70420;SDS011;57848;51.938;15.520;2023-05-07T13:42:29;4.90;;;1.35;;
70420;SDS011;57848;51.938;15.520;2023-05-07T13:44:56;5.05;;;1.65;;
70420;SDS011;57848;51.938;15.520;2023-05-07T13:47:22;5.20;;;1.93;;
70420;SDS011;57848;51.938;15.520;2023-05-07T13:49:47;5.85;;;1.88;;
70420;SDS011;57848;51.938;15.520;2023-05-07T13:52:16;5.33;;;1.60;;
70420;SDS011;57848;51.938;15.520;2023-05-07T13:54:42;5.30;;;1.73;;
70420;SDS011;57848;51.938;15.520;2023-05-07T13:57:07;5.00;;;1.40;;
70420;SDS011;57848;51.938;15.520;2023-05-07T13:59:33;4.37;;;1.30;;
70420;SDS011;57848;51.938;15.520;2023-05-07T14:01:58;5.95;;;1.65;;
70420;SDS011;57848;51.938;15.520;2023-05-07T14:04:24;5.40;;;1.37;;
70420;SDS011;57848;51.938;15.520;2023-05-07T14:06:49;7.93;;;1.73;;
70420;SDS011;57848;51.938;15.520;2023-05-07T14:09:14;4.90;;;1.60;;
70420;SDS011;57848;51.938;15.520;2023-05-07T14:11:40;5.30;;;1.80;;
70420;SDS011;57848;51.938;15.520;2023-05-07T14:14:06;5.88;;;1.70;;
70420;SDS011;57848;51.938;15.520;2023-05-07T14:16:31;5.07;;;1.50;;
70420;SDS011;57848;51.938;15.520;2023-05-07T14:18:57;6.07;;;1.67;;
70420;SDS011;57848;51.938;15.520;2023-05-07T14:21:22;5.70;;;1.50;;
70420;SDS011;57848;51.938;15.520;2023-05-07T14:23:47;5.60;;;1.35;;
70420;SDS011;57848;51.938;15.520;2023-05-07T14:26:13;4.57;;;1.50;;
70420;SDS011;57848;51.938;15.520;2023-05-07T14:28:38;6.23;;;1.90;;
70420;SDS011;57848;51.938;15.520;2023-05-07T14:31:04;5.63;;;1.75;;
70420;SDS011;57848;51.938;15.520;2023-05-07T14:33:31;4.95;;;1.60;;
70420;SDS011;57848;51.938;15.520;2023-05-07T14:35:56;6.17;;;2.00;;
70420;SDS011;57848;51.938;15.520;2023-05-07T14:38:21;5.50;;;2.10;;
70420;SDS011;57848;51.938;15.520;2023-05-07T14:40:47;5.40;;;1.50;;
70420;SDS011;57848;51.938;15.520;2023-05-07T14:43:12;7.07;;;1.97;;